Time,TemperatureF,DewpointF,PressureIn,WindDirection,WindDirectionDegrees,WindSpeedMPH,WindSpeedGustMPH,Humidity,HourlyPrecipIn,Conditions,Clouds,dailyrainin,SoftwareType,DateUTC
2013-01-21 00:06:00,25.0,13.8,29.96,SSE,157,0.0,0.0,62,0.00,,---,0.00,VWS V14.00,2013-01-21 05:06:00,
2013-01-21 00:11:00,24.0,12.5,29.96,SW,225,0.0,1.0,61,0.00,,---,0.00,VWS V14.00,2013-01-21 05:11:00,
2013-01-21 00:16:00,25.0,13.5,29.97,South,180,0.0,1.0,61,0.00,,---,0.00,VWS V14.00,2013-01-21 05:16:00,
2013-01-21 00:21:00,25.0,12.7,29.97,SW,225,1.0,3.0,59,0.00,,---,0.00,VWS V14.00,2013-01-21 05:21:00,
2013-01-21 00:26:00,25.0,11.1,29.97,West,270,1.0,3.0,55,0.00,,---,0.00,VWS V14.00,2013-01-21 05:26:00,
2013-01-21 00:32:00,25.0,10.7,29.97,SW,225,4.0,4.0,54,0.00,,---,0.00,VWS V14.00,2013-01-21 05:32:00,
2013-01-21 00:37:00,25.0,9.4,29.97,SW,225,6.0,6.0,51,0.00,,---,0.00,VWS V14.00,2013-01-21 05:37:00,
2013-01-21 00:42:00,24.0,9.4,29.97,SW,225,3.0,3.0,53,0.00,,---,0.00,VWS V14.00,2013-01-21 05:42:00,
2013-01-21 00:47:00,24.0,9.4,29.98,South,180,0.0,0.0,53,0.00,,---,0.00,VWS V14.00,2013-01-21 05:47:00,
2013-01-21 00:52:00,24.0,10.2,29.98,West,270,0.0,3.0,55,0.00,,---,0.00,VWS V14.00,2013-01-21 05:52:00,
2013-01-21 00:57:00,24.0,10.2,29.99,South,180,3.0,4.0,55,0.00,,---,0.00,VWS V14.00,2013-01-21 05:57:00,
2013-01-21 01:02:00,24.0,9.8,29.99,SW,225,3.0,4.0,54,0.00,,---,0.00,VWS V14.00,2013-01-21 06:02:00,
2013-01-21 01:07:00,24.0,9.4,29.99,WSW,247,0.0,3.0,53,0.00,,---,0.00,VWS V14.00,2013-01-21 06:07:00,
2013-01-21 01:08:00,5.0,-5.8,30.22,West,270,0.0,0.0,60,0.00,,---,0.00,VWS V14.00,2013-01-21 06:08:00,
2013-01-21 01:10:00,5.0,-6.5,30.22,SW,225,0.0,0.0,58,0.00,,---,0.00,VWS V14.00,2013-01-21 06:10:00,
2013-01-21 01:11:00,5.0,-6.5,30.22,SW,225,0.0,1.0,58,0.00,,---,0.00,VWS V14.00,2013-01-21 06:11:00,
2013-01-21 01:12:00,24.0,9.8,29.99,SSE,157,0.0,5.0,54,0.00,,---,0.00,VWS V14.00,2013-01-21 06:12:00,
2013-01-21 01:13:00,5.0,-6.5,30.22,SW,225,0.0,0.0,58,0.00,,---,0.00,VWS V14.00,2013-01-21 06:13:00,
2013-01-21 01:14:00,5.0,-6.5,30.22,SW,225,0.0,0.0,58,0.00,,---,0.00,VWS V14.00,2013-01-21 06:14:00,
2013-01-21 01:15:00,5.0,-6.5,30.23,SW,225,0.0,0.0,58,0.00,,---,0.00,VWS V14.00,2013-01-21 06:15:00,
2013-01-21 01:16:00,5.0,-6.5,30.23,SW,225,0.0,0.0,58,0.00,,---,0.00,VWS V14.00,2013-01-21 06:16:00,
2013-01-21 01:17:00,24.0,9.8,29.99,SSW,202,0.0,0.0,54,0.00,,---,0.00,VWS V14.00,2013-01-21 06:17:00,
2013-01-21 01:22:00,23.0,9.2,29.99,WSW,247,0.0,0.0,55,0.00,,---,0.00,VWS V14.00,2013-01-21 06:22:00,
2013-01-21 01:27:00,23.0,9.2,30.00,SW,225,0.0,4.0,55,0.00,,---,0.00,VWS V14.00,2013-01-21 06:27:00,
2013-01-21 01:32:00,23.0,9.7,30.00,SW,225,0.0,1.0,56,0.00,,---,0.00,VWS V14.00,2013-01-21 06:32:00,
2013-01-21 01:37:00,23.0,10.1,30.01,SW,225,0.0,0.0,57,0.00,,---,0.00,VWS V14.00,2013-01-21 06:37:00,
2013-01-21 01:42:00,23.0,10.4,30.01,North,360,0.0,0.0,58,0.00,,---,0.00,VWS V14.00,2013-01-21 06:42:00,
2013-01-21 01:47:00,23.0,8.9,30.01,WNW,292,2.0,3.0,54,0.00,,---,0.00,VWS V14.00,2013-01-21 06:47:00,
2013-01-21 01:52:00,23.0,8.4,30.01,WSW,247,0.0,3.0,53,0.00,,---,0.00,VWS V14.00,2013-01-21 06:52:00,
2013-01-21 01:57:00,23.0,8.0,30.03,SW,225,2.0,3.0,52,0.00,,---,0.00,VWS V14.00,2013-01-21 06:57:00,
2013-01-21 02:02:00,22.0,7.5,30.03,East,90,0.0,0.0,53,0.00,,---,0.00,VWS V14.00,2013-01-21 07:02:00,
2013-01-21 02:07:00,22.0,7.5,30.03,WSW,247,0.0,1.0,53,0.00,,---,0.00,VWS V14.00,2013-01-21 07:07:00,
2013-01-21 02:12:00,22.0,6.7,30.03,WSW,247,2.0,3.0,51,0.00,,---,0.00,VWS V14.00,2013-01-21 07:12:00,
2013-01-21 02:17:00,22.0,6.7,30.04,SW,225,4.0,4.0,51,0.00,,---,0.00,VWS V14.00,2013-01-21 07:17:00,
2013-01-21 02:22:00,22.0,6.7,30.04,WSW,247,0.0,2.0,51,0.00,,---,0.00,VWS V14.00,2013-01-21 07:22:00,
2013-01-21 02:27:00,22.0,6.7,30.05,SW,225,0.0,3.0,51,0.00,,---,0.00,VWS V14.00,2013-01-21 07:27:00,
2013-01-21 02:32:00,22.0,6.7,30.05,SW,225,4.0,4.0,51,0.00,,---,0.00,VWS V14.00,2013-01-21 07:32:00,
2013-01-21 02:37:00,22.0,6.7,30.05,SW,225,1.0,1.0,51,0.00,,---,0.00,VWS V14.00,2013-01-21 07:37:00,
2013-01-21 02:42:00,22.0,6.2,30.05,NW,315,2.0,2.0,50,0.00,,---,0.00,VWS V14.00,2013-01-21 07:42:00,
2013-01-21 02:47:00,22.0,5.8,30.05,SW,225,0.0,1.0,49,0.00,,---,0.00,VWS V14.00,2013-01-21 07:47:00,
2013-01-21 02:52:00,21.0,4.8,30.05,SW,225,0.0,0.0,49,0.00,,---,0.00,VWS V14.00,2013-01-21 07:52:00,
2013-01-21 02:57:00,21.0,4.8,30.06,SW,225,1.0,1.0,49,0.00,,---,0.00,VWS V14.00,2013-01-21 07:57:00,
2013-01-21 02:59:00,9.0,-7.6,30.22,SW,225,2.0,2.0,46,0.00,,---,0.00,VWS V14.00,2013-01-21 07:59:00,
2013-01-21 03:00:00,9.0,-8.0,30.22,SW,225,0.0,2.0,45,0.00,,---,0.00,VWS V14.00,2013-01-21 08:00:00,
2013-01-21 03:01:00,9.0,-8.0,30.22,WSW,247,0.0,0.0,45,0.00,,---,0.00,VWS V14.00,2013-01-21 08:01:00,
2013-01-21 03:02:00,21.0,4.8,30.06,WNW,292,0.0,0.0,49,0.00,,---,0.00,VWS V14.00,2013-01-21 08:02:00,
2013-01-21 03:03:00,9.0,-7.6,30.22,SW,225,0.0,0.0,46,0.00,,---,0.00,VWS V14.00,2013-01-21 08:03:00,
2013-01-21 03:04:00,9.0,-7.6,30.22,WSW,247,0.0,3.0,46,0.00,,---,0.00,VWS V14.00,2013-01-21 08:04:00,
2013-01-21 03:07:00,21.0,4.8,30.05,SW,225,0.0,1.0,49,0.00,,---,0.00,VWS V14.00,2013-01-21 08:07:00,
2013-01-21 03:12:00,21.0,4.8,30.05,ESE,112,0.0,0.0,49,0.00,,---,0.00,VWS V14.00,2013-01-21 08:12:00,
2013-01-21 03:17:00,21.0,4.8,30.07,SW,225,0.0,0.0,49,0.00,,---,0.00,VWS V14.00,2013-01-21 08:17:00,
2013-01-21 03:22:00,21.0,4.8,30.07,SW,225,0.0,1.0,49,0.00,,---,0.00,VWS V14.00,2013-01-21 08:22:00,
2013-01-21 03:27:00,21.0,4.4,30.07,SSW,202,0.0,0.0,48,0.00,,---,0.00,VWS V14.00,2013-01-21 08:27:00,
2013-01-21 03:32:00,20.0,3.0,30.07,SW,225,0.0,0.0,47,0.00,,---,0.00,VWS V14.00,2013-01-21 08:32:00,
2013-01-21 03:37:00,20.0,3.0,30.07,SSW,202,0.0,0.0,47,0.00,,---,0.00,VWS V14.00,2013-01-21 08:37:00,
2013-01-21 03:42:00,20.0,2.6,30.07,SW,225,0.0,0.0,46,0.00,,---,0.00,VWS V14.00,2013-01-21 08:42:00,
2013-01-21 03:47:00,20.0,3.0,30.08,ESE,112,0.0,0.0,47,0.00,,---,0.00,VWS V14.00,2013-01-21 08:47:00,
2013-01-21 03:52:00,20.0,3.0,30.08,SW,225,0.0,0.0,47,0.00,,---,0.00,VWS V14.00,2013-01-21 08:52:00,
2013-01-21 03:57:00,20.0,2.6,30.07,SW,225,0.0,0.0,46,0.00,,---,0.00,VWS V14.00,2013-01-21 08:57:00,
2013-01-21 04:02:00,20.0,3.0,30.07,South,180,0.0,0.0,47,0.00,,---,0.00,VWS V14.00,2013-01-21 09:02:00,
2013-01-21 04:07:00,20.0,3.0,30.08,WSW,247,0.0,0.0,47,0.00,,---,0.00,VWS V14.00,2013-01-21 09:07:00,
2013-01-21 04:12:00,20.0,3.5,30.08,WSW,247,0.0,0.0,48,0.00,,---,0.00,VWS V14.00,2013-01-21 09:12:00,
2013-01-21 04:17:00,19.0,3.0,30.08,SW,225,0.0,0.0,49,0.00,,---,0.00,VWS V14.00,2013-01-21 09:17:00,
2013-01-21 04:22:00,19.0,2.6,30.08,SW,225,0.0,0.0,48,0.00,,---,0.00,VWS V14.00,2013-01-21 09:22:00,
2013-01-21 04:27:00,19.0,3.0,30.08,NE,45,0.0,0.0,49,0.00,,---,0.00,VWS V14.00,2013-01-21 09:27:00,
2013-01-21 04:32:00,19.0,3.0,30.08,NE,45,0.0,0.0,49,0.00,,---,0.00,VWS V14.00,2013-01-21 09:32:00,
2013-01-21 04:37:00,19.0,3.0,30.08,NE,45,0.0,0.0,49,0.00,,---,0.00,VWS V14.00,2013-01-21 09:37:00,
2013-01-21 04:42:00,19.0,3.4,30.08,NE,45,0.0,0.0,50,0.00,,---,0.00,VWS V14.00,2013-01-21 09:42:00,
2013-01-21 04:47:00,19.0,3.0,30.08,SW,225,0.0,0.0,49,0.00,,---,0.00,VWS V14.00,2013-01-21 09:47:00,
2013-01-21 04:52:00,19.0,3.4,30.08,SW,225,0.0,0.0,50,0.00,,---,0.00,VWS V14.00,2013-01-21 09:52:00,
2013-01-21 04:57:00,18.0,2.5,30.08,SW,225,0.0,0.0,50,0.00,,---,0.00,VWS V14.00,2013-01-21 09:57:00,
2013-01-21 05:02:00,18.0,2.5,30.08,SW,225,0.0,0.0,50,0.00,,---,0.00,VWS V14.00,2013-01-21 10:02:00,
2013-01-21 05:07:00,18.0,2.5,30.09,East,90,0.0,0.0,50,0.00,,---,0.00,VWS V14.00,2013-01-21 10:07:00,
2013-01-21 05:12:00,18.0,2.9,30.09,East,90,0.0,0.0,51,0.00,,---,0.00,VWS V14.00,2013-01-21 10:12:00,
2013-01-21 05:17:00,18.0,2.5,30.09,ENE,67,0.0,0.0,50,0.00,,---,0.00,VWS V14.00,2013-01-21 10:17:00,
2013-01-21 05:22:00,18.0,3.3,30.09,ENE,67,0.0,0.0,52,0.00,,---,0.00,VWS V14.00,2013-01-21 10:22:00,
2013-01-21 05:27:00,18.0,3.3,30.10,ENE,67,0.0,0.0,52,0.00,,---,0.00,VWS V14.00,2013-01-21 10:27:00,
2013-01-21 05:32:00,17.0,2.8,30.10,ENE,67,0.0,0.0,53,0.00,,---,0.00,VWS V14.00,2013-01-21 10:32:00,
2013-01-21 05:37:00,17.0,2.8,30.10,ENE,67,0.0,0.0,53,0.00,,---,0.00,VWS V14.00,2013-01-21 10:37:00,
2013-01-21 05:42:00,17.0,3.2,30.10,ENE,67,0.0,0.0,54,0.00,,---,0.00,VWS V14.00,2013-01-21 10:42:00,
2013-01-21 05:47:00,17.0,3.2,30.11,ENE,67,0.0,0.0,54,0.00,,---,0.00,VWS V14.00,2013-01-21 10:47:00,
2013-01-21 05:52:00,16.0,2.7,30.11,ENE,67,0.0,0.0,55,0.00,,---,0.00,VWS V14.00,2013-01-21 10:52:00,
2013-01-21 05:57:00,16.0,2.7,30.11,ENE,67,0.0,0.0,55,0.00,,---,0.00,VWS V14.00,2013-01-21 10:57:00,
2013-01-21 06:02:00,16.0,2.7,30.11,ENE,67,0.0,0.0,55,0.00,,---,0.00,VWS V14.00,2013-01-21 11:02:00,
2013-01-21 06:07:00,16.0,3.1,30.11,ENE,67,0.0,0.0,56,0.00,,---,0.00,VWS V14.00,2013-01-21 11:07:00,
2013-01-21 06:13:00,16.0,3.1,30.11,ENE,67,0.0,0.0,56,0.00,,---,0.00,VWS V14.00,2013-01-21 11:13:00,
2013-01-21 06:18:00,16.0,3.5,30.12,ENE,67,0.0,0.0,57,0.00,,---,0.00,VWS V14.00,2013-01-21 11:18:00,
2013-01-21 06:22:00,16.0,3.5,30.12,ENE,67,0.0,0.0,57,0.00,,---,0.00,VWS V14.00,2013-01-21 11:22:00,
2013-01-21 06:27:00,16.0,3.8,30.13,ENE,67,0.0,0.0,58,0.00,,---,0.00,VWS V14.00,2013-01-21 11:27:00,
2013-01-21 06:32:00,16.0,3.8,30.13,ENE,67,0.0,0.0,58,0.00,,---,0.00,VWS V14.00,2013-01-21 11:32:00,
2013-01-21 06:37:00,16.0,3.8,30.13,ENE,67,0.0,0.0,58,0.00,,---,0.00,VWS V14.00,2013-01-21 11:37:00,
2013-01-21 06:43:00,16.0,3.8,30.13,ENE,67,0.0,0.0,58,0.00,,---,0.00,VWS V14.00,2013-01-21 11:43:00,
2013-01-21 06:48:00,16.0,4.2,30.13,ENE,67,0.0,0.0,59,0.00,,---,0.00,VWS V14.00,2013-01-21 11:48:00,
2013-01-21 06:53:00,16.0,4.6,30.13,ENE,67,0.0,0.0,60,0.00,,---,0.00,VWS V14.00,2013-01-21 11:53:00,
2013-01-21 06:58:00,16.0,4.6,30.13,ENE,67,0.0,0.0,60,0.00,,---,0.00,VWS V14.00,2013-01-21 11:58:00,
2013-01-21 07:03:00,16.0,4.6,30.13,ENE,67,0.0,0.0,60,0.00,,---,0.00,VWS V14.00,2013-01-21 12:03:00,
2013-01-21 07:08:00,15.0,4.0,30.13,ENE,67,0.0,0.0,61,0.00,,---,0.00,VWS V14.00,2013-01-21 12:08:00,
2013-01-21 07:12:00,15.0,4.3,30.13,ENE,67,0.0,0.0,62,0.00,,---,0.00,VWS V14.00,2013-01-21 12:12:00,
2013-01-21 07:17:00,15.0,4.3,30.14,ENE,67,0.0,0.0,62,0.00,,---,0.00,VWS V14.00,2013-01-21 12:17:00,
2013-01-21 07:22:00,15.0,4.3,30.14,ENE,67,0.0,0.0,62,0.00,,---,0.00,VWS V14.00,2013-01-21 12:22:00,
2013-01-21 07:27:00,15.0,4.7,30.14,ENE,67,0.0,0.0,63,0.00,,---,0.00,VWS V14.00,2013-01-21 12:27:00,
2013-01-21 07:32:00,15.0,5.0,30.14,ENE,67,0.0,0.0,64,0.00,,---,0.00,VWS V14.00,2013-01-21 12:32:00,
2013-01-21 07:38:00,15.0,5.0,30.14,ENE,67,0.0,0.0,64,0.00,,---,0.00,VWS V14.00,2013-01-21 12:38:00,
2013-01-21 07:42:00,15.0,5.4,30.14,ENE,67,0.0,0.0,65,0.00,,---,0.00,VWS V14.00,2013-01-21 12:42:00,
2013-01-21 07:47:00,16.0,6.3,30.15,ENE,67,0.0,0.0,65,0.00,,---,0.00,VWS V14.00,2013-01-21 12:47:00,
2013-01-21 07:52:00,16.0,6.3,30.15,ENE,67,0.0,0.0,65,0.00,,---,0.00,VWS V14.00,2013-01-21 12:52:00,
2013-01-21 07:57:00,16.0,6.0,30.15,ENE,67,0.0,0.0,64,0.00,,---,0.00,VWS V14.00,2013-01-21 12:57:00,
2013-01-21 08:02:00,16.0,6.0,30.15,ENE,67,0.0,0.0,64,0.00,,---,0.00,VWS V14.00,2013-01-21 13:02:00,
2013-01-21 08:08:00,17.0,6.6,30.15,ENE,67,0.0,0.0,63,0.00,,---,0.00,VWS V14.00,2013-01-21 13:08:00,
2013-01-21 08:13:00,17.0,6.6,30.15,ENE,67,0.0,0.0,63,0.00,,---,0.00,VWS V14.00,2013-01-21 13:13:00,
2013-01-21 08:18:00,17.0,6.6,30.14,ENE,67,0.0,0.0,63,0.00,,---,0.00,VWS V14.00,2013-01-21 13:18:00,
2013-01-21 08:23:00,17.0,6.6,30.14,ENE,67,0.0,0.0,63,0.00,,---,0.00,VWS V14.00,2013-01-21 13:23:00,
2013-01-21 08:27:00,18.0,7.2,30.13,ENE,67,0.0,0.0,62,0.00,,---,0.00,VWS V14.00,2013-01-21 13:27:00,
2013-01-21 08:33:00,18.0,6.8,30.13,SSW,202,0.0,0.0,61,0.00,,---,0.00,VWS V14.00,2013-01-21 13:33:00,
2013-01-21 08:38:00,19.0,7.4,30.13,SSW,202,0.0,0.0,60,0.00,,---,0.00,VWS V14.00,2013-01-21 13:38:00,
2013-01-21 08:42:00,19.0,6.7,30.13,SW,225,0.0,0.0,58,0.00,,---,0.00,VWS V14.00,2013-01-21 13:42:00,
2013-01-21 08:48:00,19.0,6.3,30.13,SW,225,0.0,0.0,57,0.00,,---,0.00,VWS V14.00,2013-01-21 13:48:00,
2013-01-21 08:52:00,19.0,6.3,30.13,SSW,202,0.0,0.0,57,0.00,,---,0.00,VWS V14.00,2013-01-21 13:52:00,
2013-01-21 08:53:00,28.0,25.7,29.98,South,180,0.0,11.0,91,0.68,,---,0.00,VWS V14.00,2013-01-21 13:53:00,
2013-01-21 08:54:00,28.0,25.7,29.98,South,180,0.0,11.0,91,0.68,,---,0.00,VWS V14.00,2013-01-21 13:54:00,
2013-01-21 08:55:00,28.0,25.7,29.98,South,180,0.0,11.0,91,0.68,,---,0.00,VWS V14.00,2013-01-21 13:55:00,
2013-01-21 08:56:00,28.0,25.7,29.98,South,180,0.0,11.0,91,0.68,,---,0.00,VWS V14.00,2013-01-21 13:56:00,
2013-01-21 08:58:00,19.0,6.3,30.13,SW,225,0.0,0.0,57,0.00,,---,0.00,VWS V14.00,2013-01-21 13:58:00,
2013-01-21 09:02:00,20.0,6.4,30.13,SW,225,0.0,0.0,55,0.00,,---,0.00,VWS V14.00,2013-01-21 14:02:00,
2013-01-21 09:07:00,20.0,5.6,30.14,SW,225,0.0,0.0,53,0.00,,---,0.00,VWS V14.00,2013-01-21 14:07:00,
2013-01-21 09:12:00,20.0,5.6,30.14,SW,225,0.0,1.0,53,0.00,,---,0.00,VWS V14.00,2013-01-21 14:12:00,
2013-01-21 09:15:00,28.0,26.0,29.98,South,180,0.0,11.0,92,0.68,,---,0.00,VWS V14.00,2013-01-21 14:15:00,
2013-01-21 09:16:00,28.0,25.7,29.99,South,180,0.0,11.0,91,0.68,,---,0.00,VWS V14.00,2013-01-21 14:16:00,
2013-01-21 09:17:00,21.0,5.7,30.13,SW,225,0.0,1.0,51,0.00,,---,0.00,VWS V14.00,2013-01-21 14:17:00,
2013-01-21 09:18:00,28.0,26.0,29.99,South,180,0.0,11.0,92,0.68,,---,0.00,VWS V14.00,2013-01-21 14:18:00,
2013-01-21 09:22:00,21.0,5.7,30.13,SW,225,0.0,0.0,51,0.00,,---,0.00,VWS V14.00,2013-01-21 14:22:00,
2013-01-21 09:27:00,22.0,6.2,30.13,SSW,202,0.0,2.0,50,0.00,,---,0.00,VWS V14.00,2013-01-21 14:27:00,
2013-01-21 09:33:00,22.0,5.8,30.13,SSW,202,0.0,0.0,49,0.00,,---,0.00,VWS V14.00,2013-01-21 14:33:00,
2013-01-21 09:38:00,23.0,5.8,30.12,SSW,202,0.0,0.0,47,0.00,,---,0.00,VWS V14.00,2013-01-21 14:38:00,
2013-01-21 09:43:00,23.0,4.8,30.12,SW,225,0.0,0.0,45,0.00,,---,0.00,VWS V14.00,2013-01-21 14:43:00,
2013-01-21 09:48:00,23.0,4.8,30.11,South,180,2.0,3.0,45,0.00,,---,0.00,VWS V14.00,2013-01-21 14:48:00,
2013-01-21 09:53:00,24.0,5.3,30.11,SW,225,0.0,2.0,44,0.00,,---,0.00,VWS V14.00,2013-01-21 14:53:00,
2013-01-21 09:58:00,24.0,4.8,30.11,SW,225,0.0,3.0,43,0.00,,---,0.00,VWS V14.00,2013-01-21 14:58:00,
2013-01-21 10:03:00,24.0,4.8,30.11,SW,225,0.0,1.0,43,0.00,,---,0.00,VWS V14.00,2013-01-21 15:03:00,
2013-01-21 10:08:00,24.0,4.8,30.11,SSW,202,0.0,1.0,43,0.00,,---,0.00,VWS V14.00,2013-01-21 15:08:00,
2013-01-21 10:13:00,24.0,4.2,30.11,South,180,0.0,2.0,42,0.00,,---,0.00,VWS V14.00,2013-01-21 15:13:00,
2013-01-21 10:18:00,24.0,4.8,30.11,SW,225,0.0,0.0,43,0.00,,---,0.00,VWS V14.00,2013-01-21 15:18:00,
2013-01-21 10:23:00,24.0,4.8,30.11,SW,225,0.0,0.0,43,0.00,,---,0.00,VWS V14.00,2013-01-21 15:23:00,
2013-01-21 10:28:00,25.0,5.7,30.10,SW,225,0.0,2.0,43,0.00,,---,0.00,VWS V14.00,2013-01-21 15:28:00,
2013-01-21 10:33:00,24.0,4.2,30.10,SW,225,0.0,3.0,42,0.00,,---,0.00,VWS V14.00,2013-01-21 15:33:00,
2013-01-21 10:38:00,24.0,4.8,30.10,SW,225,0.0,0.0,43,0.00,,---,0.00,VWS V14.00,2013-01-21 15:38:00,
2013-01-21 10:43:00,24.0,4.2,30.10,SW,225,0.0,0.0,42,0.00,,---,0.00,VWS V14.00,2013-01-21 15:43:00,
2013-01-21 10:48:00,25.0,5.7,30.09,SW,225,1.0,2.0,43,0.00,,---,0.00,VWS V14.00,2013-01-21 15:48:00,
2013-01-21 10:52:00,24.0,4.2,30.09,ESE,112,0.0,2.0,42,0.00,,---,0.00,VWS V14.00,2013-01-21 15:52:00,
2013-01-21 10:57:00,24.0,4.8,30.09,SSW,202,0.0,0.0,43,0.00,,---,0.00,VWS V14.00,2013-01-21 15:57:00,
2013-01-21 11:02:00,24.0,4.8,30.09,SW,225,0.0,0.0,43,0.00,,---,0.00,VWS V14.00,2013-01-21 16:02:00,
2013-01-21 11:07:00,25.0,5.7,30.08,SSW,202,0.0,0.0,43,0.00,,---,0.00,VWS V14.00,2013-01-21 16:07:00,
2013-01-21 11:12:00,25.0,5.7,30.08,SSW,202,0.0,0.0,43,0.00,,---,0.00,VWS V14.00,2013-01-21 16:12:00,
2013-01-21 11:17:00,25.0,5.7,30.08,SW,225,0.0,0.0,43,0.00,,---,0.00,VWS V14.00,2013-01-21 16:17:00,
2013-01-21 11:22:00,25.0,5.7,30.08,South,180,3.0,3.0,43,0.00,,---,0.00,VWS V14.00,2013-01-21 16:22:00,
2013-01-21 11:27:00,25.0,5.2,30.07,SW,225,0.0,1.0,42,0.00,,---,0.00,VWS V14.00,2013-01-21 16:27:00,
2013-01-21 11:32:00,25.0,5.2,30.07,SW,225,0.0,0.0,42,0.00,,---,0.00,VWS V14.00,2013-01-21 16:32:00,
2013-01-21 11:37:00,26.0,6.1,30.06,South,180,0.0,0.0,42,0.00,,---,0.00,VWS V14.00,2013-01-21 16:37:00,
2013-01-21 11:42:00,26.0,6.1,30.06,West,270,0.0,0.0,42,0.00,,---,0.00,VWS V14.00,2013-01-21 16:42:00,
2013-01-21 11:47:00,26.0,5.5,30.04,SW,225,0.0,0.0,41,0.00,,---,0.00,VWS V14.00,2013-01-21 16:47:00,
2013-01-21 11:52:00,26.0,5.0,30.04,SW,225,0.0,1.0,40,0.00,,---,0.00,VWS V14.00,2013-01-21 16:52:00,
2013-01-21 11:57:00,26.0,5.0,30.04,South,180,0.0,1.0,40,0.00,,---,0.00,VWS V14.00,2013-01-21 16:57:00,
2013-01-21 12:02:00,25.0,4.1,30.04,SSW,202,0.0,0.0,40,0.00,,---,0.00,VWS V14.00,2013-01-21 17:02:00,
2013-01-21 12:07:00,25.0,4.1,30.03,SW,225,2.0,2.0,40,0.00,,---,0.00,VWS V14.00,2013-01-21 17:07:00,
2013-01-21 12:12:00,25.0,4.6,30.03,SSE,157,0.0,2.0,41,0.00,,---,0.00,VWS V14.00,2013-01-21 17:12:00,
2013-01-21 12:17:00,25.0,4.1,30.03,SSE,157,0.0,2.0,40,0.00,,---,0.00,VWS V14.00,2013-01-21 17:17:00,
2013-01-21 12:22:00,26.0,5.5,30.03,SW,225,0.0,2.0,41,0.00,,---,0.00,VWS V14.00,2013-01-21 17:22:00,
2013-01-21 12:27:00,26.0,5.0,30.02,SW,225,0.0,0.0,40,0.00,,---,0.00,VWS V14.00,2013-01-21 17:27:00,
2013-01-21 12:32:00,26.0,5.5,30.02,WSW,247,0.0,1.0,41,0.00,,---,0.00,VWS V14.00,2013-01-21 17:32:00,
2013-01-21 12:37:00,26.0,5.0,30.02,SW,225,0.0,0.0,40,0.00,,---,0.00,VWS V14.00,2013-01-21 17:37:00,
2013-01-21 12:42:00,26.0,5.5,30.02,South,180,0.0,1.0,41,0.00,,---,0.00,VWS V14.00,2013-01-21 17:42:00,
2013-01-21 12:47:00,26.0,5.0,30.01,SSW,202,0.0,0.0,40,0.00,,---,0.00,VWS V14.00,2013-01-21 17:47:00,
2013-01-21 12:52:00,27.0,5.9,30.01,ESE,112,0.0,0.0,40,0.00,,---,0.00,VWS V14.00,2013-01-21 17:52:00,
2013-01-21 12:57:00,27.0,5.3,30.01,ESE,112,3.0,4.0,39,0.00,,---,0.00,VWS V14.00,2013-01-21 17:57:00,
2013-01-21 13:02:00,27.0,5.9,30.01,SW,225,0.0,0.0,40,0.00,,---,0.00,VWS V14.00,2013-01-21 18:02:00,
2013-01-21 13:07:00,27.0,4.8,30.01,South,180,3.0,3.0,38,0.00,,---,0.00,VWS V14.00,2013-01-21 18:07:00,
2013-01-21 13:12:00,26.0,5.0,30.01,SW,225,0.0,1.0,40,0.00,,---,0.00,VWS V14.00,2013-01-21 18:12:00,
2013-01-21 13:17:00,27.0,5.9,30.00,South,180,0.0,0.0,40,0.00,,---,0.00,VWS V14.00,2013-01-21 18:17:00,
2013-01-21 13:22:00,26.0,5.0,30.00,SW,225,0.0,2.0,40,0.00,,---,0.00,VWS V14.00,2013-01-21 18:22:00,
2013-01-21 13:27:00,26.0,5.0,30.00,SE,135,0.0,0.0,40,0.00,,---,0.00,VWS V14.00,2013-01-21 18:27:00,
2013-01-21 13:32:00,26.0,5.0,30.00,SSW,202,0.0,0.0,40,0.00,,---,0.00,VWS V14.00,2013-01-21 18:32:00,
2013-01-21 13:37:00,26.0,5.5,30.00,SSW,202,0.0,0.0,41,0.00,,---,0.00,VWS V14.00,2013-01-21 18:37:00,
2013-01-21 13:42:00,26.0,5.5,30.00,SSW,202,0.0,0.0,41,0.00,,---,0.00,VWS V14.00,2013-01-21 18:42:00,
2013-01-21 13:47:00,26.0,5.0,30.00,SW,225,0.0,0.0,40,0.00,,---,0.00,VWS V14.00,2013-01-21 18:47:00,
2013-01-21 13:52:00,26.0,6.1,30.00,South,180,2.0,2.0,42,0.00,,---,0.00,VWS V14.00,2013-01-21 18:52:00,
2013-01-21 13:57:00,26.0,5.5,29.99,ESE,112,0.0,3.0,41,0.00,,---,0.00,VWS V14.00,2013-01-21 18:57:00,
2013-01-21 14:02:00,26.0,6.1,29.99,SW,225,0.0,0.0,42,0.00,,---,0.00,VWS V14.00,2013-01-21 19:02:00,
2013-01-21 14:07:00,26.0,6.1,30.00,SW,225,0.0,0.0,42,0.00,,---,0.00,VWS V14.00,2013-01-21 19:07:00,
2013-01-21 14:12:00,26.0,6.1,30.00,SW,225,0.0,2.0,42,0.00,,---,0.00,VWS V14.00,2013-01-21 19:12:00,
2013-01-21 14:17:00,25.0,5.2,30.00,South,180,0.0,0.0,42,0.00,,---,0.00,VWS V14.00,2013-01-21 19:17:00,
2013-01-21 14:22:00,25.0,5.2,30.00,SW,225,0.0,0.0,42,0.00,,---,0.00,VWS V14.00,2013-01-21 19:22:00,
2013-01-21 14:27:00,25.0,5.2,30.00,SW,225,0.0,0.0,42,0.00,,---,0.00,VWS V14.00,2013-01-21 19:27:00,
2013-01-21 14:32:00,25.0,5.2,30.00,SW,225,0.0,0.0,42,0.00,,---,0.00,VWS V14.00,2013-01-21 19:32:00,
2013-01-21 14:37:00,25.0,5.7,29.99,SW,225,0.0,0.0,43,0.00,,---,0.00,VWS V14.00,2013-01-21 19:37:00,
2013-01-21 14:42:00,25.0,5.7,29.99,SW,225,0.0,0.0,43,0.00,,---,0.00,VWS V14.00,2013-01-21 19:42:00,
2013-01-21 14:47:00,25.0,5.7,29.99,SSW,202,0.0,0.0,43,0.00,,---,0.00,VWS V14.00,2013-01-21 19:47:00,
2013-01-21 14:52:00,26.0,6.6,29.99,South,180,0.0,0.0,43,0.00,,---,0.00,VWS V14.00,2013-01-21 19:52:00,
2013-01-21 14:57:00,26.0,7.1,29.99,SW,225,0.0,0.0,44,0.00,,---,0.00,VWS V14.00,2013-01-21 19:57:00,
2013-01-21 15:02:00,25.0,6.7,29.99,South,180,0.0,0.0,45,0.00,,---,0.00,VWS V14.00,2013-01-21 20:02:00,
2013-01-21 15:07:00,26.0,7.1,29.99,SSW,202,0.0,0.0,44,0.00,,---,0.00,VWS V14.00,2013-01-21 20:07:00,
2013-01-21 15:12:00,26.0,7.1,29.99,South,180,0.0,0.0,44,0.00,,---,0.00,VWS V14.00,2013-01-21 20:12:00,
2013-01-21 15:17:00,26.0,7.1,29.98,SW,225,0.0,0.0,44,0.00,,---,0.00,VWS V14.00,2013-01-21 20:17:00,
2013-01-21 15:22:00,26.0,7.1,29.98,South,180,0.0,0.0,44,0.00,,---,0.00,VWS V14.00,2013-01-21 20:22:00,
2013-01-21 15:27:00,25.0,6.2,29.99,SSE,157,0.0,0.0,44,0.00,,---,0.00,VWS V14.00,2013-01-21 20:27:00,
2013-01-21 15:32:00,25.0,6.2,29.99,SSW,202,0.0,0.0,44,0.00,,---,0.00,VWS V14.00,2013-01-21 20:32:00,
2013-01-21 15:37:00,25.0,6.7,29.99,SSW,202,0.0,0.0,45,0.00,,---,0.00,VWS V14.00,2013-01-21 20:37:00,
2013-01-21 15:42:00,25.0,6.7,29.99,SSW,202,0.0,0.0,45,0.00,,---,0.00,VWS V14.00,2013-01-21 20:42:00,
2013-01-21 15:47:00,25.0,6.7,29.98,SSW,202,0.0,0.0,45,0.00,,---,0.00,VWS V14.00,2013-01-21 20:47:00,
2013-01-21 15:52:00,25.0,6.7,29.98,SSW,202,0.0,0.0,45,0.00,,---,0.00,VWS V14.00,2013-01-21 20:52:00,
2013-01-21 15:57:00,25.0,6.7,29.97,South,180,0.0,0.0,45,0.00,,---,0.00,VWS V14.00,2013-01-21 20:57:00,
2013-01-21 16:02:00,25.0,7.2,29.97,South,180,0.0,0.0,46,0.00,,---,0.00,VWS V14.00,2013-01-21 21:02:00,
2013-01-21 16:07:00,25.0,7.2,29.96,South,180,0.0,0.0,46,0.00,,---,0.00,VWS V14.00,2013-01-21 21:07:00,
2013-01-21 16:12:00,25.0,7.6,29.96,SSW,202,0.0,0.0,47,0.00,,---,0.00,VWS V14.00,2013-01-21 21:12:00,
2013-01-21 16:17:00,25.0,8.1,29.96,South,180,0.0,0.0,48,0.00,,---,0.00,VWS V14.00,2013-01-21 21:17:00,
2013-01-21 16:22:00,25.0,8.6,29.96,SSE,157,0.0,0.0,49,0.00,,---,0.00,VWS V14.00,2013-01-21 21:22:00,
2013-01-21 16:27:00,25.0,8.6,29.96,South,180,0.0,0.0,49,0.00,,---,0.00,VWS V14.00,2013-01-21 21:27:00,
2013-01-21 16:32:00,24.0,8.1,29.96,South,180,0.0,0.0,50,0.00,,---,0.00,VWS V14.00,2013-01-21 21:32:00,
2013-01-21 16:37:00,24.0,8.5,29.97,SW,225,0.0,0.0,51,0.00,,---,0.00,VWS V14.00,2013-01-21 21:37:00,
2013-01-21 16:42:00,24.0,8.9,29.97,South,180,0.0,0.0,52,0.00,,---,0.00,VWS V14.00,2013-01-21 21:42:00,
2013-01-21 16:47:00,24.0,8.9,29.97,SSW,202,0.0,0.0,52,0.00,,---,0.00,VWS V14.00,2013-01-21 21:47:00,
2013-01-21 16:52:00,24.0,9.4,29.97,South,180,0.0,0.0,53,0.00,,---,0.00,VWS V14.00,2013-01-21 21:52:00,
2013-01-21 16:57:00,24.0,9.4,29.97,South,180,0.0,0.0,53,0.00,,---,0.00,VWS V14.00,2013-01-21 21:57:00,
2013-01-21 17:02:00,24.0,10.2,29.97,South,180,0.0,0.0,55,0.00,,---,0.00,VWS V14.00,2013-01-21 22:02:00,
2013-01-21 17:07:00,24.0,11.4,29.97,NE,45,0.0,0.0,58,0.00,,---,0.00,VWS V14.00,2013-01-21 22:07:00,
2013-01-21 17:12:00,24.0,11.8,29.97,SSE,157,0.0,2.0,59,0.00,,---,0.00,VWS V14.00,2013-01-21 22:12:00,
2013-01-21 17:17:00,23.0,11.6,29.98,SW,225,0.0,0.0,61,0.00,,---,0.00,VWS V14.00,2013-01-21 22:17:00,
2013-01-21 17:22:00,23.0,12.6,29.98,South,180,0.0,2.0,64,0.00,,---,0.00,VWS V14.00,2013-01-21 22:22:00,
2013-01-21 17:27:00,23.0,13.4,29.98,SW,225,0.0,5.0,66,0.00,,---,0.00,VWS V14.00,2013-01-21 22:27:00,
2013-01-21 17:32:00,23.0,14.0,29.98,SW,225,0.0,0.0,68,0.00,,---,0.00,VWS V14.00,2013-01-21 22:32:00,
2013-01-21 17:37:00,23.0,14.4,29.98,SSW,202,0.0,0.0,69,0.00,,---,0.00,VWS V14.00,2013-01-21 22:37:00,
2013-01-21 17:38:00,1.0,-7.2,30.26,ESE,112,0.0,0.0,71,0.00,,---,0.00,VWS V14.00,2013-01-21 22:38:00,
2013-01-21 17:39:00,1.0,-7.2,30.26,ESE,112,0.0,0.0,71,0.00,,---,0.00,VWS V14.00,2013-01-21 22:39:00,
2013-01-21 17:40:00,1.0,-7.2,30.26,ESE,112,0.0,0.0,71,0.00,,---,0.00,VWS V14.00,2013-01-21 22:40:00,
2013-01-21 17:41:00,1.0,-7.2,30.26,ESE,112,0.0,0.0,71,0.00,,---,0.00,VWS V14.00,2013-01-21 22:41:00,
2013-01-21 17:42:00,23.0,15.0,29.98,ESE,112,0.0,0.0,71,0.00,,---,0.00,VWS V14.00,2013-01-21 22:42:00,
2013-01-21 17:43:00,1.0,-6.9,30.26,ESE,112,0.0,0.0,72,0.00,,---,0.00,VWS V14.00,2013-01-21 22:43:00,
2013-01-21 17:44:00,1.0,-6.6,30.26,ESE,112,0.0,0.0,73,0.00,,---,0.00,VWS V14.00,2013-01-21 22:44:00,
2013-01-21 17:45:00,1.0,-6.3,30.25,ESE,112,0.0,0.0,74,0.00,,---,0.00,VWS V14.00,2013-01-21 22:45:00,
2013-01-21 17:46:00,-1.0,-7.3,30.25,ESE,112,0.0,0.0,74,0.00,,---,0.00,VWS V14.00,2013-01-21 22:46:00,
2013-01-21 17:47:00,22.0,14.4,29.98,East,90,0.0,0.0,72,0.00,,---,0.00,VWS V14.00,2013-01-21 22:47:00,
2013-01-21 17:52:00,22.0,15.0,29.98,South,180,0.0,1.0,74,0.00,,---,0.00,VWS V14.00,2013-01-21 22:52:00,
2013-01-21 17:57:00,22.0,15.3,29.98,South,180,0.0,0.0,75,0.00,,---,0.00,VWS V14.00,2013-01-21 22:57:00,
2013-01-21 18:02:00,22.0,15.3,29.98,South,180,0.0,0.0,75,0.00,,---,0.00,VWS V14.00,2013-01-21 23:02:00,
2013-01-21 18:07:00,22.0,15.6,29.98,SE,135,0.0,0.0,76,0.00,,---,0.00,VWS V14.00,2013-01-21 23:07:00,
2013-01-21 18:12:00,22.0,15.9,29.98,South,180,0.0,0.0,77,0.00,,---,0.00,VWS V14.00,2013-01-21 23:12:00,
2013-01-21 18:17:00,22.0,16.2,29.99,SE,135,0.0,0.0,78,0.00,,---,0.00,VWS V14.00,2013-01-21 23:17:00,
2013-01-21 18:22:00,22.0,17.4,29.99,East,90,0.0,0.0,82,0.00,,---,0.00,VWS V14.00,2013-01-21 23:22:00,
2013-01-21 18:27:00,21.0,16.4,29.98,East,90,0.0,0.0,82,0.00,,---,0.00,VWS V14.00,2013-01-21 23:27:00,
2013-01-21 18:32:00,21.0,16.7,29.98,East,90,0.0,0.0,83,0.00,,---,0.00,VWS V14.00,2013-01-21 23:32:00,
2013-01-21 18:37:00,21.0,16.9,29.99,East,90,0.0,0.0,84,0.00,,---,0.00,VWS V14.00,2013-01-21 23:37:00,
2013-01-21 18:42:00,21.0,17.2,29.99,East,90,0.0,0.0,85,0.00,,---,0.00,VWS V14.00,2013-01-21 23:42:00,
2013-01-21 18:47:00,21.0,17.2,29.98,East,90,0.0,0.0,85,0.00,,---,0.00,VWS V14.00,2013-01-21 23:47:00,
2013-01-21 18:52:00,21.0,17.2,29.98,East,90,0.0,0.0,85,0.00,,---,0.00,VWS V14.00,2013-01-21 23:52:00,
2013-01-21 18:57:00,21.0,17.2,29.98,East,90,0.0,0.0,85,0.00,,---,0.00,VWS V14.00,2013-01-21 23:57:00,
2013-01-21 19:02:00,21.0,17.5,29.98,East,90,0.0,0.0,86,0.00,,---,0.00,VWS V14.00,2013-01-22 00:02:00,
2013-01-21 19:07:00,21.0,17.5,29.98,East,90,0.0,0.0,86,0.00,,---,0.00,VWS V14.00,2013-01-22 00:07:00,
2013-01-21 19:12:00,21.0,17.5,29.98,East,90,0.0,0.0,86,0.00,,---,0.00,VWS V14.00,2013-01-22 00:12:00,
2013-01-21 19:16:00,-2.0,-6.6,30.26,ESE,112,0.0,0.0,80,0.00,,---,0.00,VWS V14.00,2013-01-22 00:16:00,
2013-01-21 19:17:00,21.0,17.8,29.97,East,90,0.0,0.0,87,0.00,,---,0.00,VWS V14.00,2013-01-22 00:17:00,
2013-01-21 19:18:00,-2.0,-6.6,30.26,ESE,112,0.0,0.0,80,0.00,,---,0.00,VWS V14.00,2013-01-22 00:18:00,
2013-01-21 19:19:00,-2.0,-6.6,30.26,ESE,112,0.0,0.0,80,0.00,,---,0.00,VWS V14.00,2013-01-22 00:19:00,
2013-01-21 19:20:00,-2.0,-6.6,30.26,ESE,112,0.0,0.0,80,0.00,,---,0.00,VWS V14.00,2013-01-22 00:20:00,
2013-01-21 19:21:00,-2.0,-6.6,30.26,ESE,112,0.0,0.0,80,0.00,,---,0.00,VWS V14.00,2013-01-22 00:21:00,
2013-01-21 19:22:00,21.0,17.2,29.97,East,90,0.0,0.0,85,0.00,,---,0.00,VWS V14.00,2013-01-22 00:22:00,
2013-01-21 19:23:00,-2.0,-6.6,30.26,ESE,112,0.0,0.0,80,0.00,,---,0.00,VWS V14.00,2013-01-22 00:23:00,
2013-01-21 19:24:00,-1.0,-5.7,30.27,ESE,112,0.0,0.0,80,0.00,,---,0.00,VWS V14.00,2013-01-22 00:24:00,
2013-01-21 19:25:00,-1.0,-5.7,30.27,ESE,112,0.0,0.0,80,0.00,,---,0.00,VWS V14.00,2013-01-22 00:25:00,
2013-01-21 19:26:00,-1.0,-5.7,30.27,ESE,112,0.0,0.0,80,0.00,,---,0.00,VWS V14.00,2013-01-22 00:26:00,
2013-01-21 19:27:00,21.0,17.5,29.97,East,90,0.0,0.0,86,0.00,,---,0.00,VWS V14.00,2013-01-22 00:27:00,
2013-01-21 19:28:00,-1.0,-5.7,30.27,ESE,112,0.0,0.0,80,0.00,,---,0.00,VWS V14.00,2013-01-22 00:28:00,
2013-01-21 19:32:00,21.0,17.5,29.97,East,90,0.0,0.0,86,0.00,,---,0.00,VWS V14.00,2013-01-22 00:32:00,
2013-01-21 19:37:00,21.0,17.8,29.97,East,90,0.0,0.0,87,0.00,,---,0.00,VWS V14.00,2013-01-22 00:37:00,
2013-01-21 19:42:00,21.0,18.0,29.97,East,90,0.0,0.0,88,0.00,,---,0.00,VWS V14.00,2013-01-22 00:42:00,
2013-01-21 19:47:00,21.0,18.3,29.97,East,90,0.0,0.0,89,0.00,,---,0.00,VWS V14.00,2013-01-22 00:47:00,
2013-01-21 19:52:00,21.0,18.5,29.97,East,90,0.0,0.0,90,0.00,,---,0.00,VWS V14.00,2013-01-22 00:52:00,
2013-01-21 19:57:00,21.0,18.8,29.96,East,90,0.0,0.0,91,0.00,,---,0.00,VWS V14.00,2013-01-22 00:57:00,
2013-01-21 20:02:00,21.0,18.8,29.96,East,90,0.0,0.0,91,0.00,,---,0.00,VWS V14.00,2013-01-22 01:02:00,
2013-01-21 20:07:00,21.0,18.8,29.96,East,90,0.0,0.0,91,0.00,,---,0.00,VWS V14.00,2013-01-22 01:07:00,
2013-01-21 20:12:00,21.0,18.8,29.96,East,90,0.0,0.0,91,0.00,,---,0.00,VWS V14.00,2013-01-22 01:12:00,
2013-01-21 20:17:00,21.0,18.8,29.96,East,90,0.0,0.0,91,0.00,,---,0.00,VWS V14.00,2013-01-22 01:17:00,
2013-01-21 20:22:00,20.0,17.8,29.96,East,90,0.0,0.0,91,0.00,,---,0.00,VWS V14.00,2013-01-22 01:22:00,
2013-01-21 20:25:00,-2.0,-6.6,30.26,ESE,112,0.0,0.0,80,0.00,,---,0.00,VWS V14.00,2013-01-22 01:25:00,
2013-01-21 20:26:00,-2.0,-6.6,30.26,ESE,112,0.0,0.0,80,0.00,,---,0.00,VWS V14.00,2013-01-22 01:26:00,
2013-01-21 20:27:00,20.0,17.8,29.96,East,90,0.0,0.0,91,0.00,,---,0.00,VWS V14.00,2013-01-22 01:27:00,
2013-01-21 20:28:00,-2.0,-6.6,30.26,ESE,112,0.0,0.0,80,0.00,,---,0.00,VWS V14.00,2013-01-22 01:28:00,
2013-01-21 20:29:00,-2.0,-6.6,30.26,ESE,112,0.0,0.0,80,0.00,,---,0.00,VWS V14.00,2013-01-22 01:29:00,
2013-01-21 20:30:00,-2.0,-6.6,30.26,ESE,112,0.0,0.0,80,0.00,,---,0.00,VWS V14.00,2013-01-22 01:30:00,
2013-01-21 20:32:00,20.0,18.0,29.96,East,90,0.0,0.0,92,0.00,,---,0.00,VWS V14.00,2013-01-22 01:32:00,
2013-01-21 20:37:00,20.0,18.0,29.95,East,90,0.0,0.0,92,0.00,,---,0.00,VWS V14.00,2013-01-22 01:37:00,
2013-01-21 20:42:00,20.0,18.0,29.95,East,90,0.0,0.0,92,0.00,,---,0.00,VWS V14.00,2013-01-22 01:42:00,
2013-01-21 20:47:00,20.0,18.3,29.95,East,90,0.0,0.0,93,0.00,,---,0.00,VWS V14.00,2013-01-22 01:47:00,
2013-01-21 20:52:00,20.0,18.3,29.95,East,90,0.0,0.0,93,0.00,,---,0.00,VWS V14.00,2013-01-22 01:52:00,
2013-01-21 20:57:00,20.0,18.3,29.95,East,90,0.0,0.0,93,0.00,,---,0.00,VWS V14.00,2013-01-22 01:57:00,
2013-01-21 21:02:00,20.0,18.3,29.95,East,90,0.0,0.0,93,0.00,,---,0.00,VWS V14.00,2013-01-22 02:02:00,
2013-01-21 21:07:00,20.0,18.3,29.95,East,90,0.0,0.0,93,0.00,,---,0.00,VWS V14.00,2013-01-22 02:07:00,
2013-01-21 21:12:00,20.0,18.3,29.95,East,90,0.0,0.0,93,0.00,,---,0.00,VWS V14.00,2013-01-22 02:12:00,
2013-01-21 21:17:00,20.0,18.3,29.94,East,90,0.0,0.0,93,0.00,,---,0.00,VWS V14.00,2013-01-22 02:17:00,
2013-01-21 21:22:00,20.0,18.5,29.94,East,90,0.0,0.0,94,0.00,,---,0.00,VWS V14.00,2013-01-22 02:22:00,
2013-01-21 21:27:00,20.0,18.5,29.93,East,90,0.0,0.0,94,0.00,,---,0.00,VWS V14.00,2013-01-22 02:27:00,
2013-01-21 21:32:00,20.0,18.5,29.93,East,90,0.0,0.0,94,0.00,,---,0.00,VWS V14.00,2013-01-22 02:32:00,
2013-01-21 21:37:00,20.0,18.5,29.92,East,90,0.0,0.0,94,0.00,,---,0.00,VWS V14.00,2013-01-22 02:37:00,
2013-01-21 21:42:00,20.0,18.5,29.92,East,90,0.0,0.0,94,0.00,,---,0.00,VWS V14.00,2013-01-22 02:42:00,
2013-01-21 21:47:00,20.0,18.5,29.92,East,90,0.0,0.0,94,0.00,,---,0.00,VWS V14.00,2013-01-22 02:47:00,
2013-01-21 21:52:00,20.0,18.8,29.92,East,90,0.0,0.0,95,0.00,,---,0.00,VWS V14.00,2013-01-22 02:52:00,
2013-01-21 21:57:00,20.0,19.3,29.93,East,90,0.0,0.0,97,0.00,,---,0.00,VWS V14.00,2013-01-22 02:57:00,
2013-01-21 22:02:00,20.0,19.0,29.93,East,90,0.0,0.0,96,0.00,,---,0.00,VWS V14.00,2013-01-22 03:02:00,
2013-01-21 22:07:00,20.0,19.0,29.92,East,90,0.0,0.0,96,0.00,,---,0.00,VWS V14.00,2013-01-22 03:07:00,
2013-01-21 22:12:00,20.0,19.3,29.92,East,90,0.0,0.0,97,0.00,,---,0.00,VWS V14.00,2013-01-22 03:12:00,
2013-01-21 22:17:00,20.0,19.3,29.92,East,90,0.0,0.0,97,0.00,,---,0.00,VWS V14.00,2013-01-22 03:17:00,
2013-01-21 22:22:00,20.0,19.0,29.92,East,90,0.0,0.0,96,0.00,,---,0.00,VWS V14.00,2013-01-22 03:22:00,
2013-01-21 22:27:00,20.0,19.0,29.90,East,90,0.0,0.0,96,0.00,,---,0.00,VWS V14.00,2013-01-22 03:27:00,
2013-01-21 22:32:00,20.0,19.3,29.90,East,90,0.0,0.0,97,0.00,,---,0.00,VWS V14.00,2013-01-22 03:32:00,
2013-01-21 22:37:00,20.0,19.0,29.89,East,90,0.0,0.0,96,0.00,,---,0.00,VWS V14.00,2013-01-22 03:37:00,
2013-01-21 22:42:00,20.0,19.3,29.89,East,90,0.0,0.0,97,0.00,,---,0.00,VWS V14.00,2013-01-22 03:42:00,
2013-01-21 22:47:00,20.0,19.3,29.90,East,90,0.0,0.0,97,0.00,,---,0.00,VWS V14.00,2013-01-22 03:47:00,
2013-01-21 22:52:00,20.0,19.5,29.90,East,90,0.0,0.0,98,0.00,,---,0.00,VWS V14.00,2013-01-22 03:52:00,
2013-01-21 22:57:00,20.0,19.3,29.89,East,90,0.0,0.0,97,0.00,,---,0.00,VWS V14.00,2013-01-22 03:57:00,
2013-01-21 23:02:00,20.0,19.5,29.89,East,90,0.0,0.0,98,0.00,,---,0.00,VWS V14.00,2013-01-22 04:02:00,
2013-01-21 23:07:00,20.0,19.3,29.88,East,90,0.0,0.0,97,0.00,,---,0.00,VWS V14.00,2013-01-22 04:07:00,
2013-01-21 23:08:00,-2.0,-7.2,30.25,South,180,0.0,0.0,78,0.00,,---,0.00,VWS V14.00,2013-01-22 04:08:00,
2013-01-21 23:09:00,-2.0,-7.2,30.25,South,180,0.0,0.0,78,0.00,,---,0.00,VWS V14.00,2013-01-22 04:09:00,
2013-01-21 23:10:00,-2.0,-7.2,30.25,South,180,0.0,0.0,78,0.00,,---,0.00,VWS V14.00,2013-01-22 04:10:00,
2013-01-21 23:11:00,-2.0,-7.2,30.25,South,180,0.0,0.0,78,0.00,,---,0.00,VWS V14.00,2013-01-22 04:11:00,
2013-01-21 23:12:00,20.0,19.5,29.88,East,90,0.0,0.0,98,0.00,,---,0.00,VWS V14.00,2013-01-22 04:12:00,
2013-01-21 23:13:00,-2.0,-7.2,30.25,South,180,0.0,0.0,78,0.00,,---,0.00,VWS V14.00,2013-01-22 04:13:00,
2013-01-21 23:14:00,-2.0,-7.2,30.25,South,180,0.0,0.0,78,0.00,,---,0.00,VWS V14.00,2013-01-22 04:14:00,
2013-01-21 23:17:00,20.0,19.3,29.88,East,90,0.0,0.0,97,0.00,,---,0.00,VWS V14.00,2013-01-22 04:17:00,
2013-01-21 23:22:00,20.0,19.5,29.88,East,90,0.0,0.0,98,0.00,,---,0.00,VWS V14.00,2013-01-22 04:22:00,
2013-01-21 23:27:00,20.0,19.5,29.88,East,90,0.0,0.0,98,0.00,,---,0.00,VWS V14.00,2013-01-22 04:27:00,
2013-01-21 23:32:00,19.0,18.3,29.88,East,90,0.0,0.0,97,0.00,,---,0.00,VWS V14.00,2013-01-22 04:32:00,
2013-01-21 23:37:00,19.0,18.3,29.85,East,90,0.0,0.0,97,0.00,,---,0.00,VWS V14.00,2013-01-22 04:37:00,
2013-01-21 23:42:00,19.0,18.3,29.85,East,90,0.0,0.0,97,0.00,,---,0.00,VWS V14.00,2013-01-22 04:42:00,
2013-01-21 23:47:00,19.0,18.3,29.85,East,90,0.0,0.0,97,0.00,,---,0.00,VWS V14.00,2013-01-22 04:47:00,
2013-01-21 23:52:00,19.0,18.3,29.85,East,90,0.0,0.0,97,0.00,,---,0.00,VWS V14.00,2013-01-22 04:52:00,
2013-01-21 23:57:00,19.0,18.3,29.86,East,90,0.0,0.0,97,0.00,,---,0.00,VWS V14.00,2013-01-22 04:57:00,